Time;durP1;ratioP1;P1;durP2;ratioP2;P2;SDS_P1;SDS_P2;PMS_P1;PMS_P2;Temp;Humidity;BMP_temperature;BMP_pressure;BME280_temperature;BME280_humidity;BME280_pressure;Samples;Min_cycle;Max_cycle;Signal;HPM_P1;HPM_P2
2022/07/06 00:01:54;;;;;;;12.60;6.50;;;;;;;23.87;50.92;100560.78;5035187;28;20049;-68
2022/07/06 00:04:21;;;;;;;8.05;5.18;;;;;;;23.77;51.04;100564.19;5033457;28;20063;-68
2022/07/06 00:06:48;;;;;;;9.55;5.30;;;;;;;23.38;51.56;100509.88;5041291;28;20045;-67
2022/07/06 00:09:15;;;;;;;8.48;5.60;;;;;;;23.63;51.59;100558.13;5040024;28;20686;-67
2022/07/06 00:11:42;;;;;;;7.22;5.20;;;;;;;23.70;52.25;100584.00;5036609;28;20076;-66
2022/07/06 00:14:09;;;;;;;12.00;5.60;;;;;;;23.53;52.29;100555.84;5052595;28;20059;-67
2022/07/06 00:16:36;;;;;;;9.20;6.70;;;;;;;23.42;52.50;100550.69;5041592;28;20048;-66
2022/07/06 00:19:03;;;;;;;8.43;6.50;;;;;;;23.48;53.05;100573.19;5046947;28;20052;-65
2022/07/06 00:21:30;;;;;;;8.15;5.93;;;;;;;23.49;53.65;100572.84;5052247;28;20053;-65
2022/07/06 00:23:57;;;;;;;9.73;6.25;;;;;;;23.41;53.75;100556.72;5036984;28;20099;-66
2022/07/06 00:26:24;;;;;;;8.45;6.68;;;;;;;23.32;53.94;100545.53;5044306;28;20416;-66
2022/07/06 00:28:50;;;;;;;10.48;5.97;;;;;;;23.31;54.11;100562.97;5042844;28;20542;-67
2022/07/06 00:31:17;;;;;;;10.98;6.70;;;;;;;23.36;54.10;100582.69;5047504;28;20174;-67
2022/07/06 00:33:44;;;;;;;12.05;5.95;;;;;;;23.29;54.49;100583.31;5043918;28;20053;-66
2022/07/06 00:36:11;;;;;;;8.23;6.28;;;;;;;23.24;55.02;100577.03;5037650;28;20049;-65
2022/07/06 00:38:38;;;;;;;11.23;7.47;;;;;;;23.28;54.96;100583.66;5041744;28;20049;-67
2022/07/06 00:41:05;;;;;;;11.70;6.13;;;;;;;23.24;55.32;100580.72;5034423;28;20096;-66
2022/07/06 00:43:55;;;;;;;14.18;6.80;;;;;;;23.13;54.85;100582.44;5032782;28;20053;-67
2022/07/06 00:46:30;;;;;;;10.75;6.40;;;;;;;23.05;55.53;100575.75;5037845;28;20053;-67
2022/07/06 00:48:58;;;;;;;7.28;6.30;;;;;;;23.11;55.66;100593.38;5032829;28;20412;-66
2022/07/06 00:51:31;;;;;;;10.00;6.78;;;;;;;23.00;55.71;100580.88;5044897;28;20042;-68
2022/07/06 00:54:02;;;;;;;11.75;6.75;;;;;;;22.99;56.13;100579.22;5042987;28;20045;-67
2022/07/06 00:56:31;;;;;;;12.32;6.45;;;;;;;22.91;56.02;100589.56;5038272;28;20095;-66
2022/07/06 00:59:00;;;;;;;9.63;6.07;;;;;;;22.87;56.12;100586.59;5049360;28;20558;-66
2022/07/06 01:01:27;;;;;;;11.37;5.93;;;;;;;22.75;56.35;100586.66;5041221;28;20045;-67
2022/07/06 01:03:54;;;;;;;6.57;5.97;;;;;;;22.67;56.49;100573.41;5042638;28;20705;-66
2022/07/06 01:06:21;;;;;;;16.48;6.13;;;;;;;22.62;56.45;100582.19;5047371;28;20128;-65
2022/07/06 01:08:48;;;;;;;10.20;6.18;;;;;;;22.73;56.75;100588.19;5038453;28;20420;-66
2022/07/06 01:11:18;;;;;;;11.63;5.93;;;;;;;22.64;57.01;100579.81;5047751;28;20514;-65
2022/07/06 01:13:45;;;;;;;5.93;5.32;;;;;;;22.55;57.02;100565.72;5037070;28;20100;-65
2022/07/06 01:16:12;;;;;;;7.40;5.30;;;;;;;22.56;56.73;100566.56;5035970;28;20107;-66
2022/07/06 01:18:40;;;;;;;5.95;4.70;;;;;;;22.52;57.36;100577.84;5047201;28;20045;-66
2022/07/06 01:21:12;;;;;;;9.90;5.70;;;;;;;22.42;57.76;100570.63;5050684;28;20045;-67
2022/07/06 01:23:44;;;;;;;8.07;5.10;;;;;;;22.33;57.30;100555.75;5049120;28;20049;-67
2022/07/06 01:26:18;;;;;;;7.93;5.70;;;;;;;22.41;57.64;100579.53;5045762;28;20389;-67
2022/07/06 01:28:50;;;;;;;11.52;8.15;;;;;;;22.39;57.69;100576.22;5042399;28;20120;-67
2022/07/06 01:31:19;;;;;;;8.20;6.32;;;;;;;22.24;57.57;100549.34;5035155;28;20046;-66
2022/07/06 01:33:49;;;;;;;11.82;6.05;;;;;;;22.44;57.63;100582.50;5043672;28;20516;-67
2022/07/06 01:36:16;;;;;;;7.07;5.53;;;;;;;22.39;57.79;100574.22;5041486;28;20496;-67
2022/07/06 01:38:58;;;;;;;8.02;5.57;;;;;;;22.47;57.64;100584.63;5046137;28;20041;-67
2022/07/06 01:41:26;;;;;;;9.73;6.53;;;;;;;22.12;57.92;100547.34;5045341;28;20090;-67
2022/07/06 01:43:53;;;;;;;8.73;6.10;;;;;;;22.39;57.70;100610.34;5040754;28;20463;-67
2022/07/06 01:46:20;;;;;;;8.65;7.07;;;;;;;22.40;58.15;100615.72;5038385;28;20050;-67
2022/07/06 01:48:47;;;;;;;7.53;5.75;;;;;;;22.43;58.10;100620.69;5038573;28;20087;-67
2022/07/06 01:51:14;;;;;;;10.07;5.43;;;;;;;22.44;58.00;100622.31;5044804;28;20045;-66
2022/07/06 01:53:41;;;;;;;8.95;5.95;;;;;;;22.34;58.10;100607.78;5047414;28;20097;-66
2022/07/06 01:56:09;;;;;;;12.07;6.40;;;;;;;22.41;57.99;100605.97;5047367;28;20578;-67
2022/07/06 01:58:36;;;;;;;8.32;6.00;;;;;;;22.40;58.07;100607.16;5038376;28;20049;-66
2022/07/06 02:01:09;;;;;;;8.68;5.55;;;;;;;22.39;58.20;100590.44;5044892;28;20558;-67
2022/07/06 02:03:37;;;;;;;13.80;8.43;;;;;;;22.37;58.62;100592.84;5042511;28;20060;-66
2022/07/06 02:06:05;;;;;;;9.65;6.35;;;;;;;22.24;58.66;100574.97;5040564;28;20423;-67
2022/07/06 02:08:33;;;;;;;7.32;6.40;;;;;;;22.38;58.76;100585.94;5045809;28;20045;-66
2022/07/06 02:11:04;;;;;;;8.25;7.45;;;;;;;22.26;58.88;100578.28;5052550;28;20045;-65
2022/07/06 02:13:31;;;;;;;8.80;6.25;;;;;;;22.39;58.87;100599.84;5049497;28;20053;-66
2022/07/06 02:15:58;;;;;;;10.85;5.97;;;;;;;22.43;58.35;100597.91;5046028;28;20088;-66
2022/07/06 02:18:25;;;;;;;10.98;5.95;;;;;;;22.23;58.11;100564.78;5042018;28;20045;-66
2022/07/06 02:20:53;;;;;;;8.68;5.78;;;;;;;22.51;58.43;100603.81;5043907;28;20053;-67
2022/07/06 02:23:20;;;;;;;9.82;8.80;;;;;;;22.44;58.55;100585.34;5049285;28;20057;-66
2022/07/06 02:25:47;;;;;;;8.25;6.68;;;;;;;22.51;58.42;100598.13;5067548;28;20623;-66
2022/07/06 02:28:14;;;;;;;13.23;8.07;;;;;;;22.47;58.46;100598.84;5047938;28;20427;-67
2022/07/06 02:30:41;;;;;;;9.18;8.27;;;;;;;22.43;58.21;100600.75;5041511;28;23265;-66
2022/07/06 02:33:08;;;;;;;13.50;7.20;;;;;;;22.45;58.56;100586.97;5043266;28;20595;-67
2022/07/06 02:35:35;;;;;;;16.20;8.82;;;;;;;22.46;58.50;100591.50;5047804;28;20133;-67
2022/07/06 02:38:01;;;;;;;11.13;7.70;;;;;;;22.46;58.27;100597.19;5040774;28;20124;-67
2022/07/06 02:40:28;;;;;;;9.57;8.05;;;;;;;22.18;58.56;100567.84;5049436;28;20045;-66
2022/07/06 02:42:55;;;;;;;8.23;6.05;;;;;;;22.22;58.39;100585.84;5048618;28;20127;-66
2022/07/06 02:45:22;;;;;;;13.95;9.10;;;;;;;22.37;58.63;100602.19;5050885;28;20060;-67
2022/07/06 02:47:50;;;;;;;10.63;9.52;;;;;;;22.31;58.70;100600.78;5048808;28;20099;-66
2022/07/06 02:50:17;;;;;;;9.23;6.45;;;;;;;22.27;58.53;100588.47;5040376;28;20092;-67
2022/07/06 02:52:44;;;;;;;7.38;5.60;;;;;;;22.16;58.56;100578.78;5041871;28;20123;-67
2022/07/06 02:55:11;;;;;;;7.93;5.85;;;;;;;21.85;58.92;100543.25;5037693;28;20077;-67
2022/07/06 02:57:37;;;;;;;11.55;6.78;;;;;;;22.11;58.92;100591.19;5046329;28;20156;-67
2022/07/06 03:00:07;;;;;;;12.30;7.32;;;;;;;22.17;58.91;100603.19;5039105;28;20045;-66
2022/07/06 03:02:34;;;;;;;11.38;6.40;;;;;;;21.98;59.09;100604.59;5045405;28;20555;-67
2022/07/06 03:05:00;;;;;;;10.80;5.28;;;;;;;21.97;59.31;100602.09;5043778;28;20144;-67
2022/07/06 03:07:27;;;;;;;10.15;6.03;;;;;;;22.00;59.53;100602.22;5042854;28;20160;-66
2022/07/06 03:09:54;;;;;;;10.43;5.47;;;;;;;21.91;59.32;100590.13;5037947;28;20103;-66
2022/07/06 03:12:21;;;;;;;17.60;5.63;;;;;;;21.91;59.85;100595.00;5038726;28;20140;-68
2022/07/06 03:14:48;;;;;;;7.07;4.72;;;;;;;21.98;59.52;100598.06;5042628;28;20160;-67
2022/07/06 03:17:15;;;;;;;8.82;5.13;;;;;;;22.07;59.58;100598.78;5047099;28;20175;-68
2022/07/06 03:19:42;;;;;;;15.10;4.90;;;;;;;22.11;59.81;100596.03;5051561;28;20423;-69
2022/07/06 03:22:08;;;;;;;12.88;5.10;;;;;;;22.01;59.77;100568.91;5049888;28;20457;-68
2022/07/06 03:24:35;;;;;;;9.18;4.97;;;;;;;22.11;59.86;100585.50;5042936;28;20445;-67
2022/07/06 03:27:02;;;;;;;8.13;4.90;;;;;;;22.18;59.45;100590.63;5044154;28;20068;-68
2022/07/06 03:29:29;;;;;;;7.63;4.47;;;;;;;22.12;59.62;100609.06;5072036;28;20148;-68
2022/07/06 03:31:56;;;;;;;9.40;5.35;;;;;;;21.95;59.84;100593.94;5046409;28;20577;-68
2022/07/06 03:34:23;;;;;;;9.85;5.40;;;;;;;21.94;59.77;100603.63;5044053;28;20061;-68
2022/07/06 03:36:50;;;;;;;12.00;4.80;;;;;;;21.86;60.08;100583.88;5039385;28;20137;-68
2022/07/06 03:39:16;;;;;;;10.65;4.88;;;;;;;21.83;60.12;100585.41;5049707;28;20041;-69
2022/07/06 03:41:43;;;;;;;9.10;5.40;;;;;;;21.82;60.03;100597.97;5045388;28;20445;-67
2022/07/06 03:44:10;;;;;;;11.63;5.00;;;;;;;21.80;59.99;100590.97;5044947;28;20136;-68
2022/07/06 03:46:37;;;;;;;9.65;5.10;;;;;;;21.77;60.35;100603.88;5036445;28;20121;-67
2022/07/06 03:49:04;;;;;;;9.30;4.93;;;;;;;21.79;60.31;100607.22;5048839;28;20045;-67
2022/07/06 03:51:31;;;;;;;9.30;5.13;;;;;;;21.73;60.20;100598.09;5043423;28;20144;-67
2022/07/06 03:53:58;;;;;;;10.68;5.00;;;;;;;21.68;60.35;100606.03;5050176;28;20135;-67
2022/07/06 03:56:27;;;;;;;8.55;5.47;;;;;;;21.65;60.56;100593.34;5043151;28;20080;-66
2022/07/06 03:58:59;;;;;;;11.43;6.25;;;;;;;21.62;60.59;100579.03;5041360;28;20080;-67
2022/07/06 04:01:27;;;;;;;9.27;5.18;;;;;;;21.68;60.50;100594.66;5036667;28;20081;-67
2022/07/06 04:03:54;;;;;;;13.23;6.22;;;;;;;21.53;60.49;100581.97;5039391;28;20080;-67
2022/07/06 04:06:21;;;;;;;14.52;5.53;;;;;;;21.69;60.54;100608.50;5045946;28;20076;-67
2022/07/06 04:08:48;;;;;;;9.90;4.72;;;;;;;21.53;60.78;100579.94;5048346;28;20140;-67
2022/07/06 04:11:14;;;;;;;10.30;4.18;;;;;;;21.67;60.87;100610.88;5036743;28;20144;-67
2022/07/06 04:13:41;;;;;;;6.20;3.53;;;;;;;21.66;60.77;100597.84;5051856;28;20139;-67
2022/07/06 04:16:08;;;;;;;7.40;3.30;;;;;;;21.73;60.20;100608.63;5043021;28;20132;-67
2022/07/06 04:18:35;;;;;;;7.28;3.45;;;;;;;21.76;60.06;100613.59;5042629;28;20056;-67
2022/07/06 04:21:02;;;;;;;4.35;2.85;;;;;;;21.72;59.55;100610.66;5038094;28;20071;-68
2022/07/06 04:23:29;;;;;;;6.28;2.80;;;;;;;21.60;59.12;100582.22;5045417;28;20087;-67
2022/07/06 04:25:56;;;;;;;4.38;2.33;;;;;;;21.56;58.67;100580.44;5043641;28;20131;-67
2022/07/06 04:28:23;;;;;;;7.88;3.85;;;;;;;21.74;58.49;100615.97;5041480;28;20080;-67
2022/07/06 04:30:50;;;;;;;6.18;3.47;;;;;;;;;;5046437;28;20077;-67
2022/07/06 04:33:17;;;;;;;10.93;3.63;;;;;;;21.26;59.31;100555.03;5041160;28;20083;-66
2022/07/06 04:35:44;;;;;;;8.38;3.60;;;;;;;21.50;60.11;100611.94;5048362;28;20088;-67
2022/07/06 04:38:11;;;;;;;6.97;4.43;;;;;;;21.42;60.09;100589.31;5041164;28;20052;-66
2022/07/06 04:40:38;;;;;;;7.63;4.35;;;;;;;21.49;59.80;100581.84;5044319;28;20123;-66
2022/07/06 04:43:05;;;;;;;6.65;3.38;;;;;;;21.48;59.85;100583.03;5048868;28;20495;-68
2022/07/06 04:45:32;;;;;;;5.95;2.88;;;;;;;21.38;59.80;100579.84;5037197;28;20049;-68
2022/07/06 04:47:59;;;;;;;6.03;3.10;;;;;;;21.44;59.43;100599.16;5046844;28;20137;-68
2022/07/06 04:50:26;;;;;;;7.22;3.15;;;;;;;21.49;59.27;100607.41;5050765;28;20135;-67
2022/07/06 04:52:53;;;;;;;5.63;2.95;;;;;;;21.55;58.95;100607.22;5043908;28;20052;-67
2022/07/06 04:55:19;;;;;;;6.03;2.97;;;;;;;21.60;58.76;100604.13;5049993;28;20102;-67
2022/07/06 04:57:46;;;;;;;4.75;2.70;;;;;;;21.48;58.51;100582.22;5043199;28;20499;-67
2022/07/06 05:00:14;;;;;;;5.72;2.55;;;;;;;21.74;57.58;100604.59;5050747;28;20453;-68
2022/07/06 05:02:41;;;;;;;6.70;2.20;;;;;;;21.85;56.93;100605.78;5044074;28;20103;-68
2022/07/06 05:05:09;;;;;;;4.70;2.30;;;;;;;21.93;56.34;100604.84;5043784;28;20053;-68
2022/07/06 05:07:39;;;;;;;5.10;2.67;;;;;;;22.06;56.57;100619.06;5047830;28;20045;-67
2022/07/06 05:10:08;;;;;;;5.30;3.13;;;;;;;22.10;56.61;100617.16;5045780;28;20140;-68
2022/07/06 05:12:35;;;;;;;4.60;3.35;;;;;;;22.03;56.89;100626.28;5036810;28;20128;-68
2022/07/06 05:15:03;;;;;;;6.78;3.20;;;;;;;21.91;57.47;100615.72;5047537;28;20118;-68
2022/07/06 05:17:30;;;;;;;6.15;2.92;;;;;;;21.80;57.44;100613.72;5046685;28;20052;-68
2022/07/06 05:19:57;;;;;;;6.82;3.78;;;;;;;21.74;57.25;100611.13;5048895;28;20132;-67
2022/07/06 05:22:24;;;;;;;7.25;4.00;;;;;;;21.58;57.00;100592.28;5037669;28;20132;-68
2022/07/06 05:24:51;;;;;;;7.20;3.67;;;;;;;21.74;57.21;100616.81;5040480;28;20396;-68
2022/07/06 05:27:18;;;;;;;5.72;3.65;;;;;;;21.72;57.19;100621.19;5042287;28;20385;-68
2022/07/06 05:29:45;;;;;;;9.00;3.72;;;;;;;21.79;56.76;100624.28;5038027;28;20084;-67
2022/07/06 05:32:12;;;;;;;6.85;3.15;;;;;;;21.70;56.70;100604.47;5039911;28;20103;-70
2022/07/06 05:34:39;;;;;;;4.97;3.60;;;;;;;21.77;57.04;100609.56;5041961;28;20041;-68
2022/07/06 05:37:06;;;;;;;8.07;4.05;;;;;;;21.82;56.66;100606.50;5045533;28;20103;-68
2022/07/06 05:39:33;;;;;;;4.88;2.45;;;;;;;21.90;56.65;100601.88;5036781;28;20095;-69
2022/07/06 05:42:00;;;;;;;3.83;2.80;;;;;;;22.10;56.01;100617.97;5048024;28;20049;-69
2022/07/06 05:44:27;;;;;;;5.03;2.78;;;;;;;22.22;56.01;100611.47;5049912;28;20503;-68
2022/07/06 05:50:11;;;;;;;3.50;2.28;;;;;;;22.30;55.50;100619.03;5045233;28;20046;-69
2022/07/06 05:52:26;;;;;;;3.55;2.08;;;;;;;22.53;55.12;100612.81;5048810;28;20099;-69
2022/07/06 05:54:53;;;;;;;3.15;2.03;;;;;;;22.71;54.61;100608.50;5046626;28;20512;-68
2022/07/06 05:57:20;;;;;;;4.22;2.13;;;;;;;22.86;54.00;100616.25;5037694;28;20085;-69
2022/07/06 05:59:47;;;;;;;3.35;1.73;;;;;;;22.98;53.54;100617.44;5045648;28;20128;-68
2022/07/06 06:02:14;;;;;;;4.78;2.33;;;;;;;23.17;52.79;100617.56;5047346;28;20129;-69
2022/07/06 06:04:41;;;;;;;4.40;2.15;;;;;;;23.41;53.03;100625.13;5038879;28;20072;-68
2022/07/06 06:07:07;;;;;;;3.08;2.13;;;;;;;23.52;51.96;100608.31;5040728;28;20053;-69
2022/07/06 06:09:34;;;;;;;6.10;2.90;;;;;;;23.88;52.60;100639.44;5043180;28;20515;-69
2022/07/06 06:12:01;;;;;;;3.50;2.28;;;;;;;24.07;52.02;100635.00;5041922;28;20056;-69
2022/07/06 06:14:28;;;;;;;5.15;2.97;;;;;;;23.87;52.07;100589.31;5046268;28;20498;-69
2022/07/06 06:16:55;;;;;;;3.78;2.58;;;;;;;24.31;52.27;100634.78;5041445;28;20052;-68
2022/07/06 06:19:22;;;;;;;4.65;3.10;;;;;;;24.47;51.77;100642.47;5034222;28;20053;-68
2022/07/06 06:21:49;;;;;;;5.90;3.40;;;;;;;24.69;51.69;100643.81;5043815;28;20053;-67
2022/07/06 06:24:15;;;;;;;5.38;3.25;;;;;;;24.78;51.44;100642.38;5052389;28;20125;-67
2022/07/06 06:26:42;;;;;;;9.48;3.53;;;;;;;24.98;51.52;100648.09;5043285;28;20055;-67
2022/07/06 06:29:09;;;;;;;6.35;3.55;;;;;;;25.07;50.81;100637.25;5046835;28;20582;-67
2022/07/06 06:31:36;;;;;;;5.90;3.17;;;;;;;25.27;50.94;100649.53;5045000;28;20051;-68
2022/07/06 06:34:07;;;;;;;9.02;3.45;;;;;;;25.12;50.88;100607.56;5043189;28;20057;-67
2022/07/06 06:36:34;;;;;;;8.48;2.95;;;;;;;25.55;50.97;100645.56;5047969;28;20222;-67
2022/07/06 06:39:02;;;;;;;5.47;3.13;;;;;;;25.72;50.43;100663.03;5037752;28;20045;-66
2022/07/06 06:41:29;;;;;;;7.85;3.55;;;;;;;25.94;50.02;100657.72;5041582;28;20499;-67
2022/07/06 06:43:55;;;;;;;9.57;3.45;;;;;;;26.32;49.18;100671.00;5037355;28;20063;-67
2022/07/06 06:46:22;;;;;;;6.78;3.00;;;;;;;26.62;48.92;100670.25;5035649;28;20085;-67
2022/07/06 06:48:49;;;;;;;7.68;3.78;;;;;;;26.88;48.36;100666.53;5039525;28;20049;-67
2022/07/06 06:51:16;;;;;;;7.35;3.08;;;;;;;27.07;47.78;100660.63;5043059;28;20045;-67
2022/07/06 06:53:43;;;;;;;9.93;4.00;;;;;;;27.25;47.59;100677.25;5034409;28;20096;-67
2022/07/06 06:56:10;;;;;;;6.97;4.00;;;;;;;27.33;46.89;100661.78;5039134;28;20140;-66
2022/07/06 06:58:37;;;;;;;7.28;4.30;;;;;;;27.49;46.53;100650.06;5038960;28;20136;-67
2022/07/06 07:01:25;;;;;;;4.97;2.20;;;;;;;27.87;45.78;100677.53;5040386;28;20045;-67
2022/07/06 07:03:52;;;;;;;9.98;2.92;;;;;;;27.82;45.65;100658.63;5033459;28;20053;-69
2022/07/06 07:06:19;;;;;;;7.32;3.80;;;;;;;28.03;45.68;100672.34;5044412;28;20524;-67
2022/07/06 07:08:45;;;;;;;6.40;3.42;;;;;;;28.32;45.59;100678.31;5047016;28;20484;-68
2022/07/06 07:11:12;;;;;;;4.15;3.13;;;;;;;28.48;44.82;100681.75;5038850;28;20510;-68
2022/07/06 07:13:40;;;;;;;6.60;3.38;;;;;;;28.65;44.56;100679.38;5036162;28;20088;-69
2022/07/06 07:16:07;;;;;;;7.68;3.70;;;;;;;28.95;43.96;100679.97;5041332;28;20080;-68
2022/07/06 07:18:34;;;;;;;24.45;15.13;;;;;;;29.20;44.43;100685.03;5049000;28;20049;-68
2022/07/06 07:21:01;;;;;;;9.23;4.18;;;;;;;29.20;43.09;100657.09;5041138;28;20499;-68
2022/07/06 07:23:28;;;;;;;4.57;2.53;;;;;;;29.59;42.67;100684.31;5040637;28;20103;-68
2022/07/06 07:25:54;;;;;;;4.57;2.30;;;;;;;29.35;42.04;100675.22;5042026;28;20076;-67
2022/07/06 07:28:21;;;;;;;4.45;2.22;;;;;;;29.14;41.25;100693.22;5042207;28;20128;-67
2022/07/06 07:30:50;;;;;;;4.53;2.25;;;;;;;29.02;41.20;100674.25;5039750;28;20056;-67
2022/07/06 07:33:17;;;;;;;3.83;2.20;;;;;;;29.07;41.18;100698.13;5033660;28;20054;-68
2022/07/06 07:35:44;;;;;;;4.82;1.92;;;;;;;28.85;40.32;100692.22;5042868;28;20076;-68
2022/07/06 07:38:10;;;;;;;3.85;1.67;;;;;;;28.71;40.74;100669.97;5039330;28;20136;-67
2022/07/06 07:40:37;;;;;;;4.70;1.88;;;;;;;28.94;40.17;100689.81;5041121;28;20132;-68
2022/07/06 07:43:04;;;;;;;5.85;2.33;;;;;;;28.81;40.80;100677.84;5040502;28;20080;-67
2022/07/06 07:45:31;;;;;;;2.90;2.00;;;;;;;28.88;40.24;100697.16;5041463;28;20063;-68
2022/07/06 07:47:58;;;;;;;3.28;2.10;;;;;;;28.84;40.14;100686.88;5038892;28;20081;-68
2022/07/06 07:50:26;;;;;;;3.63;2.42;;;;;;;28.88;40.83;100688.53;5041666;28;20481;-68
2022/07/06 07:52:53;;;;;;;3.08;1.90;;;;;;;28.97;40.43;100683.25;5038279;28;20053;-69
2022/07/06 07:55:20;;;;;;;9.77;2.20;;;;;;;29.01;40.17;100681.25;5037928;28;20080;-68
2022/07/06 07:58:07;;;;;;;5.78;2.05;;;;;;;29.02;39.91;100691.53;5031664;28;20475;-66
2022/07/06 08:00:34;;;;;;;2.88;1.90;;;;;;;29.03;39.69;100701.00;5033649;28;20132;-68
2022/07/06 08:03:01;;;;;;;5.75;1.90;;;;;;;28.95;39.07;100697.19;5041574;28;20136;-68
2022/07/06 08:05:27;;;;;;;3.10;1.60;;;;;;;28.93;39.51;100695.97;5038094;28;20063;-69
2022/07/06 08:07:54;;;;;;;5.13;2.28;;;;;;;28.99;39.47;100689.47;5042273;28;20045;-67
2022/07/06 08:10:21;;;;;;;8.68;2.92;;;;;;;29.20;39.64;100685.88;5036181;28;20452;-68
2022/07/06 08:12:48;;;;;;;4.53;2.13;;;;;;;29.23;38.52;100685.06;5033680;28;20060;-67
2022/07/06 08:15:15;;;;;;;4.97;1.92;;;;;;;29.51;38.13;100683.50;5043191;28;20461;-68
2022/07/06 08:17:42;;;;;;;4.38;1.90;;;;;;;29.65;38.08;100694.25;5037165;28;20469;-68
2022/07/06 08:20:09;;;;;;;4.55;1.77;;;;;;;29.55;38.43;100695.00;5040558;28;20103;-68
2022/07/06 08:22:36;;;;;;;4.82;1.90;;;;;;;29.79;38.46;100681.94;5045607;28;20131;-68
2022/07/06 08:25:04;;;;;;;4.75;1.83;;;;;;;30.09;37.73;100682.38;5049282;28;20076;-68
2022/07/06 08:27:31;;;;;;;2.13;1.67;;;;;;;30.38;37.23;100691.84;5042892;28;20124;-68
2022/07/06 08:30:00;;;;;;;4.22;2.20;;;;;;;30.78;37.44;100698.38;5046033;28;20050;-68
2022/07/06 08:32:26;;;;;;;4.05;1.80;;;;;;;31.18;37.20;100704.84;5044078;28;20071;-68
2022/07/06 08:35:13;;;;;;;4.32;2.35;;;;;;;31.39;36.56;100709.72;5038651;28;20059;-69
2022/07/06 08:37:40;;;;;;;3.83;1.85;;;;;;;31.52;36.60;100698.50;5046554;28;20551;-68
2022/07/06 08:40:08;;;;;;;5.40;2.20;;;;;;;31.74;36.31;100700.03;5044853;28;20053;-69
2022/07/06 08:42:36;;;;;;;3.28;1.80;;;;;;;31.90;36.02;100710.25;5033028;28;20428;-69
2022/07/06 08:45:05;;;;;;;11.38;1.98;;;;;;;31.69;35.78;100700.47;5041017;28;20076;-68
2022/07/06 08:47:36;;;;;;;5.18;1.88;;;;;;;31.80;35.96;100712.78;5040693;28;20557;-68
2022/07/06 08:50:04;;;;;;;8.15;2.05;;;;;;;31.67;35.68;100714.53;5038484;28;20084;-68
2022/07/06 08:52:31;;;;;;;3.17;1.80;;;;;;;31.63;36.11;100707.94;5036522;28;20069;-68
2022/07/06 08:54:59;;;;;;;6.25;1.67;;;;;;;31.47;35.28;100702.66;5040078;28;20060;-68
2022/07/06 08:57:27;;;;;;;4.15;2.00;;;;;;;31.59;35.83;100715.78;5036412;28;20579;-68
2022/07/06 08:59:54;;;;;;;5.45;1.83;;;;;;;31.88;35.28;100725.13;5034690;28;20149;-68
2022/07/06 09:02:24;;;;;;;2.42;1.73;;;;;;;32.09;35.03;100706.81;5040864;28;20044;-68
2022/07/06 09:04:55;;;;;;;3.40;1.50;;;;;;;32.27;34.47;100704.59;5031817;28;20531;-68
2022/07/06 09:07:22;;;;;;;6.07;1.98;;;;;;;32.21;34.61;100720.78;5046232;28;20072;-68
2022/07/06 09:10:09;;;;;;;3.28;2.10;;;;;;;32.32;34.27;100709.94;5031873;28;20057;-72
2022/07/06 09:12:36;;;;;;;3.47;1.77;;;;;;;32.38;34.25;100718.97;5033836;28;20140;-67
2022/07/06 09:15:03;;;;;;;3.45;2.03;;;;;;;32.12;34.26;100671.31;5043390;28;20057;-67
2022/07/06 09:17:30;;;;;;;3.72;1.95;;;;;;;32.27;33.92;100715.34;5051042;28;20080;-67
2022/07/06 09:19:57;;;;;;;5.30;1.75;;;;;;;32.26;34.17;100713.69;5047818;28;20080;-67
2022/07/06 09:22:31;;;;;;;4.15;2.35;;;;;;;32.41;33.92;100705.72;5039995;28;20153;-67
2022/07/06 09:25:06;;;;;;;4.90;2.00;;;;;;;32.70;33.98;100712.91;5045858;28;20049;-67
2022/07/06 09:27:42;;;;;;;9.05;1.90;;;;;;;32.76;33.60;100716.97;5042570;28;20115;-66
2022/07/06 09:30:10;;;;;;;5.47;2.25;;;;;;;32.77;33.65;100707.03;5049027;28;20111;-67
2022/07/06 09:32:40;;;;;;;4.83;2.33;;;;;;;32.71;33.54;100717.41;5047330;28;20076;-67
2022/07/06 09:35:08;;;;;;;7.35;2.00;;;;;;;32.85;33.20;100727.19;5047722;28;20338;-67
2022/07/06 09:37:35;;;;;;;5.63;1.80;;;;;;;32.97;33.60;100730.41;5042973;28;20459;-68
2022/07/06 09:40:03;;;;;;;4.47;1.92;;;;;;;33.08;32.92;100727.38;5043167;28;20568;-68
2022/07/06 09:42:31;;;;;;;3.17;1.88;;;;;;;33.32;32.63;100719.63;5044620;28;20067;-67
2022/07/06 09:44:58;;;;;;;3.28;1.75;;;;;;;33.15;32.53;100724.41;5043519;28;20057;-67
2022/07/06 09:47:26;;;;;;;3.92;1.90;;;;;;;33.33;32.35;100726.25;5041079;28;20133;-67
2022/07/06 09:49:56;;;;;;;6.93;1.95;;;;;;;33.65;32.16;100720.06;5040058;28;20052;-68
2022/07/06 09:52:23;;;;;;;2.85;1.60;;;;;;;33.82;31.95;100721.88;5049753;28;20051;-67
2022/07/06 09:54:50;;;;;;;4.07;2.10;;;;;;;33.81;31.66;100716.50;5035534;28;20095;-67
2022/07/06 09:57:16;;;;;;;3.97;2.80;;;;;;;33.92;31.99;100743.25;5034348;28;20550;-66
2022/07/06 09:59:51;;;;;;;8.13;2.42;;;;;;;33.92;31.77;100715.09;5047530;28;20128;-67
2022/07/06 10:02:20;;;;;;;2.67;1.65;;;;;;;34.19;31.51;100732.50;5043646;28;20050;-67
2022/07/06 10:04:48;;;;;;;5.15;1.80;;;;;;;34.31;31.92;100718.63;5046440;28;20139;-67
2022/07/06 10:07:15;;;;;;;3.03;1.60;;;;;;;34.61;32.77;100733.03;5041421;28;20523;-67
2022/07/06 10:09:44;;;;;;;7.50;2.10;;;;;;;34.67;33.08;100734.19;5041963;28;20389;-67
2022/07/06 10:12:13;;;;;;;4.78;2.03;;;;;;;34.72;33.10;100717.50;5040266;28;20087;-66
2022/07/06 10:14:41;;;;;;;1.95;1.48;;;;;;;34.84;33.21;100740.91;5047441;28;20128;-67
2022/07/06 10:17:17;;;;;;;7.40;2.00;;;;;;;34.94;33.20;100733.22;5039766;28;20487;-66
2022/07/06 10:19:46;;;;;;;5.37;2.77;;;;;;;35.17;33.26;100732.41;5043373;28;20598;-67
2022/07/06 10:22:14;;;;;;;;;;;;;;;35.06;33.97;100741.31;5067490;28;20128;-67
2022/07/06 10:24:43;;;;;;;6.15;2.15;;;;;;;35.29;33.47;100745.44;5039486;28;20344;-67
2022/07/06 10:27:11;;;;;;;5.68;1.80;;;;;;;35.28;33.68;100743.78;5066653;28;20050;-66
2022/07/06 10:29:38;;;;;;;3.67;1.95;;;;;;;35.16;33.64;100762.69;5035742;28;20741;-67
2022/07/06 10:32:05;;;;;;;3.80;2.33;;;;;;;35.01;33.99;100749.69;5043299;28;20047;-69
2022/07/06 10:34:34;;;;;;;4.80;2.13;;;;;;;35.03;33.81;100756.72;5034681;28;20049;-67
2022/07/06 10:37:02;;;;;;;4.63;2.05;;;;;;;35.14;33.50;100750.69;5042215;28;20551;-66
2022/07/06 10:42:43;;;;;;;3.08;2.20;;;;;;;35.33;33.58;100757.78;5036649;28;20084;-66
2022/07/06 10:45:12;;;;;;;4.43;2.90;;;;;;;35.38;33.19;100766.78;5033801;28;20049;-67
2022/07/06 10:47:41;;;;;;;6.97;2.40;;;;;;;35.32;33.35;100745.38;5046026;28;20171;-68
2022/07/06 10:50:10;;;;;;;8.00;2.15;;;;;;;35.23;33.86;100750.13;5048550;28;20588;-67
2022/07/06 10:52:58;;;;;;;7.13;2.30;;;;;;;35.09;33.99;100757.84;5074995;28;20044;-66
2022/07/06 10:55:34;;;;;;;4.47;2.40;;;;;;;35.08;34.13;100749.59;5041330;28;20072;-66
2022/07/06 10:58:02;;;;;;;3.80;2.00;;;;;;;35.09;33.86;100762.84;5034784;28;20089;-67
2022/07/06 11:00:51;;;;;;;5.07;2.97;;;;;;;35.07;33.95;100763.28;5044005;28;20460;-66
2022/07/06 11:03:44;;;;;;;5.65;2.60;;;;;;;34.91;34.01;100742.84;5046702;28;20135;-66
2022/07/06 11:06:23;;;;;;;5.40;2.80;;;;;;;35.07;33.76;100757.47;5041662;28;20045;-66
2022/07/06 11:08:55;;;;;;;6.18;2.30;;;;;;;35.21;33.77;100755.53;5041193;28;20131;-72
2022/07/06 11:11:31;;;;;;;6.88;2.75;;;;;;;35.27;33.59;100762.47;5041404;28;20085;-69
2022/07/06 11:14:04;;;;;;;8.50;2.45;;;;;;;35.24;33.70;100766.25;5033492;28;20053;-77
2022/07/06 11:16:34;;;;;;;6.88;2.80;;;;;;;35.24;33.89;100767.09;5036646;28;20045;-75
2022/07/06 11:19:12;;;;;;;6.30;3.30;;;;;;;35.19;33.78;100770.50;5036238;28;20412;-78
2022/07/06 11:21:46;;;;;;;7.65;3.20;;;;;;;34.82;34.06;100704.88;5045842;28;20107;-68
2022/07/06 11:24:15;;;;;;;7.38;2.15;;;;;;;35.40;34.13;100765.53;5045536;28;20084;-69
2022/07/06 11:26:50;;;;;;;4.88;3.13;;;;;;;35.43;33.76;100774.16;5038150;28;20143;-66
2022/07/06 11:29:21;;;;;;;4.20;2.45;;;;;;;35.50;33.52;100762.41;5036905;28;20120;-68
2022/07/06 11:31:52;;;;;;;5.40;3.50;;;;;;;35.73;33.36;100761.50;5033573;28;20048;-69
2022/07/06 11:34:25;;;;;;;6.05;3.20;;;;;;;35.69;33.75;100762.84;5036778;28;20123;-68
2022/07/06 11:37:00;;;;;;;4.30;2.70;;;;;;;35.73;33.62;100769.41;5047925;28;20053;-68